sensor_id;sensor_type;location;lat;lon;timestamp;P1;durP1;ratioP1;P2;durP2;ratioP2
33347;SDS011;19707;51.158;17.124;2024-02-16T00:01:20;20.50;;;10.40;;
33347;SDS011;19707;51.158;17.124;2024-02-16T00:04:22;19.50;;;12.00;;
33347;SDS011;19707;51.158;17.124;2024-02-16T00:07:24;17.20;;;11.70;;
33347;SDS011;19707;51.158;17.124;2024-02-16T00:10:27;20.00;;;12.00;;
33347;SDS011;19707;51.158;17.124;2024-02-16T00:13:29;18.20;;;11.40;;
33347;SDS011;19707;51.158;17.124;2024-02-16T00:16:31;20.00;;;11.20;;
33347;SDS011;19707;51.158;17.124;2024-02-16T00:19:34;22.00;;;12.60;;
33347;SDS011;19707;51.158;17.124;2024-02-16T00:22:36;20.30;;;11.60;;
33347;SDS011;19707;51.158;17.124;2024-02-16T00:25:38;19.30;;;11.80;;
33347;SDS011;19707;51.158;17.124;2024-02-16T00:28:42;20.80;;;12.10;;
33347;SDS011;19707;51.158;17.124;2024-02-16T00:31:45;20.80;;;11.80;;
33347;SDS011;19707;51.158;17.124;2024-02-16T00:34:47;20.40;;;12.80;;
33347;SDS011;19707;51.158;17.124;2024-02-16T00:37:49;24.30;;;14.90;;
33347;SDS011;19707;51.158;17.124;2024-02-16T00:40:51;23.70;;;15.20;;
33347;SDS011;19707;51.158;17.124;2024-02-16T00:43:53;19.70;;;12.60;;
33347;SDS011;19707;51.158;17.124;2024-02-16T00:46:55;26.30;;;14.30;;
33347;SDS011;19707;51.158;17.124;2024-02-16T00:49:58;26.40;;;14.90;;
33347;SDS011;19707;51.158;17.124;2024-02-16T00:53:01;23.10;;;13.60;;
33347;SDS011;19707;51.158;17.124;2024-02-16T00:56:03;21.60;;;12.80;;
33347;SDS011;19707;51.158;17.124;2024-02-16T00:59:05;23.00;;;14.10;;
33347;SDS011;19707;51.158;17.124;2024-02-16T01:02:10;23.80;;;14.70;;
33347;SDS011;19707;51.158;17.124;2024-02-16T01:05:13;28.10;;;17.70;;
33347;SDS011;19707;51.158;17.124;2024-02-16T01:08:15;24.30;;;13.90;;
33347;SDS011;19707;51.158;17.124;2024-02-16T01:11:17;27.50;;;15.50;;
33347;SDS011;19707;51.158;17.124;2024-02-16T01:14:21;27.40;;;15.40;;
33347;SDS011;19707;51.158;17.124;2024-02-16T01:17:23;30.00;;;17.90;;
33347;SDS011;19707;51.158;17.124;2024-02-16T01:20:25;27.90;;;17.30;;
33347;SDS011;19707;51.158;17.124;2024-02-16T01:23:27;23.50;;;14.00;;
33347;SDS011;19707;51.158;17.124;2024-02-16T01:26:30;26.90;;;15.20;;
33347;SDS011;19707;51.158;17.124;2024-02-16T01:29:33;26.20;;;14.90;;
33347;SDS011;19707;51.158;17.124;2024-02-16T01:32:35;27.00;;;16.20;;
33347;SDS011;19707;51.158;17.124;2024-02-16T01:35:38;30.40;;;16.80;;
33347;SDS011;19707;51.158;17.124;2024-02-16T01:38:41;27.10;;;15.40;;
33347;SDS011;19707;51.158;17.124;2024-02-16T01:41:43;28.60;;;16.10;;
33347;SDS011;19707;51.158;17.124;2024-02-16T01:44:45;29.80;;;17.60;;
33347;SDS011;19707;51.158;17.124;2024-02-16T01:47:47;27.30;;;17.40;;
33347;SDS011;19707;51.158;17.124;2024-02-16T01:50:51;25.00;;;15.70;;
33347;SDS011;19707;51.158;17.124;2024-02-16T01:53:54;24.60;;;14.00;;
33347;SDS011;19707;51.158;17.124;2024-02-16T01:56:58;23.40;;;15.30;;
33347;SDS011;19707;51.158;17.124;2024-02-16T02:00:00;25.10;;;15.10;;
33347;SDS011;19707;51.158;17.124;2024-02-16T02:03:03;26.60;;;15.30;;
33347;SDS011;19707;51.158;17.124;2024-02-16T02:06:05;20.30;;;14.20;;
33347;SDS011;19707;51.158;17.124;2024-02-16T02:09:07;18.50;;;10.30;;
33347;SDS011;19707;51.158;17.124;2024-02-16T02:12:11;24.40;;;15.00;;
33347;SDS011;19707;51.158;17.124;2024-02-16T02:15:13;23.10;;;13.20;;
33347;SDS011;19707;51.158;17.124;2024-02-16T02:18:15;23.70;;;15.10;;
33347;SDS011;19707;51.158;17.124;2024-02-16T02:21:17;18.90;;;13.10;;
33347;SDS011;19707;51.158;17.124;2024-02-16T02:24:19;20.90;;;12.30;;
33347;SDS011;19707;51.158;17.124;2024-02-16T02:27:22;22.20;;;13.40;;
33347;SDS011;19707;51.158;17.124;2024-02-16T02:30:24;21.90;;;13.50;;
33347;SDS011;19707;51.158;17.124;2024-02-16T02:33:26;22.30;;;13.90;;
33347;SDS011;19707;51.158;17.124;2024-02-16T02:36:28;14.20;;;9.00;;
33347;SDS011;19707;51.158;17.124;2024-02-16T02:39:31;22.10;;;13.30;;
33347;SDS011;19707;51.158;17.124;2024-02-16T02:42:33;23.80;;;15.80;;
33347;SDS011;19707;51.158;17.124;2024-02-16T02:45:35;21.20;;;14.30;;
33347;SDS011;19707;51.158;17.124;2024-02-16T02:48:37;25.40;;;15.20;;
33347;SDS011;19707;51.158;17.124;2024-02-16T02:51:39;24.90;;;15.90;;
33347;SDS011;19707;51.158;17.124;2024-02-16T02:54:41;26.60;;;16.90;;
33347;SDS011;19707;51.158;17.124;2024-02-16T02:57:43;27.10;;;15.90;;
33347;SDS011;19707;51.158;17.124;2024-02-16T03:00:45;25.90;;;15.60;;
33347;SDS011;19707;51.158;17.124;2024-02-16T03:03:47;28.10;;;17.90;;
33347;SDS011;19707;51.158;17.124;2024-02-16T03:06:52;29.20;;;18.70;;
33347;SDS011;19707;51.158;17.124;2024-02-16T03:09:54;27.10;;;16.40;;
33347;SDS011;19707;51.158;17.124;2024-02-16T03:12:57;27.40;;;17.30;;
33347;SDS011;19707;51.158;17.124;2024-02-16T03:15:59;29.00;;;15.40;;
33347;SDS011;19707;51.158;17.124;2024-02-16T03:19:01;23.50;;;14.60;;
33347;SDS011;19707;51.158;17.124;2024-02-16T03:22:03;25.40;;;16.70;;
33347;SDS011;19707;51.158;17.124;2024-02-16T03:25:05;27.40;;;17.50;;
33347;SDS011;19707;51.158;17.124;2024-02-16T03:28:13;25.40;;;15.70;;
33347;SDS011;19707;51.158;17.124;2024-02-16T03:31:19;30.60;;;18.80;;
33347;SDS011;19707;51.158;17.124;2024-02-16T03:34:22;23.20;;;12.90;;
33347;SDS011;19707;51.158;17.124;2024-02-16T03:37:24;28.50;;;15.20;;
33347;SDS011;19707;51.158;17.124;2024-02-16T03:40:28;29.70;;;17.50;;
33347;SDS011;19707;51.158;17.124;2024-02-16T03:43:30;27.60;;;15.00;;
33347;SDS011;19707;51.158;17.124;2024-02-16T03:46:32;27.70;;;17.40;;
33347;SDS011;19707;51.158;17.124;2024-02-16T03:49:34;25.60;;;14.70;;
33347;SDS011;19707;51.158;17.124;2024-02-16T03:52:37;25.20;;;15.80;;
33347;SDS011;19707;51.158;17.124;2024-02-16T03:55:40;28.80;;;17.20;;
33347;SDS011;19707;51.158;17.124;2024-02-16T03:58:43;25.20;;;14.30;;
33347;SDS011;19707;51.158;17.124;2024-02-16T04:01:46;28.60;;;16.90;;
33347;SDS011;19707;51.158;17.124;2024-02-16T04:04:48;26.60;;;15.90;;
33347;SDS011;19707;51.158;17.124;2024-02-16T04:07:50;24.40;;;14.80;;
33347;SDS011;19707;51.158;17.124;2024-02-16T04:10:53;29.40;;;18.20;;
33347;SDS011;19707;51.158;17.124;2024-02-16T04:13:56;28.00;;;16.50;;
33347;SDS011;19707;51.158;17.124;2024-02-16T04:16:58;30.70;;;18.70;;
33347;SDS011;19707;51.158;17.124;2024-02-16T04:20:01;24.20;;;13.90;;
33347;SDS011;19707;51.158;17.124;2024-02-16T04:23:03;30.00;;;17.90;;
33347;SDS011;19707;51.158;17.124;2024-02-16T04:26:05;23.10;;;15.00;;
33347;SDS011;19707;51.158;17.124;2024-02-16T04:29:09;23.60;;;13.00;;
33347;SDS011;19707;51.158;17.124;2024-02-16T04:32:11;29.90;;;18.00;;
33347;SDS011;19707;51.158;17.124;2024-02-16T04:35:14;25.60;;;14.30;;
33347;SDS011;19707;51.158;17.124;2024-02-16T04:38:17;29.60;;;16.20;;
33347;SDS011;19707;51.158;17.124;2024-02-16T04:41:20;18.60;;;11.60;;
33347;SDS011;19707;51.158;17.124;2024-02-16T04:44:22;29.90;;;17.80;;
33347;SDS011;19707;51.158;17.124;2024-02-16T04:47:25;15.90;;;8.90;;
33347;SDS011;19707;51.158;17.124;2024-02-16T04:50:27;28.40;;;16.80;;
33347;SDS011;19707;51.158;17.124;2024-02-16T04:53:29;29.60;;;18.70;;
33347;SDS011;19707;51.158;17.124;2024-02-16T04:56:32;29.10;;;18.10;;
33347;SDS011;19707;51.158;17.124;2024-02-16T04:59:34;27.90;;;16.50;;
33347;SDS011;19707;51.158;17.124;2024-02-16T05:02:36;21.60;;;13.10;;
33347;SDS011;19707;51.158;17.124;2024-02-16T05:05:38;25.20;;;14.50;;
33347;SDS011;19707;51.158;17.124;2024-02-16T05:08:40;27.00;;;14.90;;
33347;SDS011;19707;51.158;17.124;2024-02-16T05:11:43;24.80;;;15.00;;
33347;SDS011;19707;51.158;17.124;2024-02-16T05:14:49;14.40;;;9.00;;
33347;SDS011;19707;51.158;17.124;2024-02-16T05:17:52;26.60;;;15.80;;
33347;SDS011;19707;51.158;17.124;2024-02-16T05:20:54;18.30;;;11.70;;
33347;SDS011;19707;51.158;17.124;2024-02-16T05:23:57;32.70;;;18.30;;
33347;SDS011;19707;51.158;17.124;2024-02-16T05:26:59;32.90;;;17.70;;
33347;SDS011;19707;51.158;17.124;2024-02-16T05:30:02;31.30;;;18.00;;
33347;SDS011;19707;51.158;17.124;2024-02-16T05:33:06;31.70;;;17.70;;
33347;SDS011;19707;51.158;17.124;2024-02-16T05:36:09;21.80;;;13.10;;
33347;SDS011;19707;51.158;17.124;2024-02-16T05:39:12;12.70;;;7.80;;
33347;SDS011;19707;51.158;17.124;2024-02-16T05:42:30;19.70;;;12.20;;
33347;SDS011;19707;51.158;17.124;2024-02-16T05:45:32;25.20;;;13.60;;
33347;SDS011;19707;51.158;17.124;2024-02-16T05:48:37;27.50;;;16.50;;
33347;SDS011;19707;51.158;17.124;2024-02-16T05:51:41;20.20;;;11.40;;
33347;SDS011;19707;51.158;17.124;2024-02-16T05:54:44;26.00;;;14.90;;
33347;SDS011;19707;51.158;17.124;2024-02-16T05:57:47;27.10;;;15.40;;
33347;SDS011;19707;51.158;17.124;2024-02-16T06:00:49;28.50;;;14.80;;
33347;SDS011;19707;51.158;17.124;2024-02-16T06:03:51;22.80;;;13.50;;
33347;SDS011;19707;51.158;17.124;2024-02-16T06:06:54;22.70;;;12.70;;
33347;SDS011;19707;51.158;17.124;2024-02-16T06:09:56;29.00;;;16.50;;
33347;SDS011;19707;51.158;17.124;2024-02-16T06:12:58;22.80;;;14.30;;
33347;SDS011;19707;51.158;17.124;2024-02-16T06:16:00;14.70;;;8.90;;
33347;SDS011;19707;51.158;17.124;2024-02-16T06:19:03;30.00;;;14.50;;
33347;SDS011;19707;51.158;17.124;2024-02-16T06:22:08;25.40;;;13.70;;
33347;SDS011;19707;51.158;17.124;2024-02-16T06:25:10;24.30;;;14.00;;
33347;SDS011;19707;51.158;17.124;2024-02-16T06:28:12;29.10;;;16.00;;
33347;SDS011;19707;51.158;17.124;2024-02-16T06:31:14;27.00;;;15.00;;
33347;SDS011;19707;51.158;17.124;2024-02-16T06:34:17;21.20;;;12.60;;
33347;SDS011;19707;51.158;17.124;2024-02-16T06:37:19;22.60;;;13.50;;
33347;SDS011;19707;51.158;17.124;2024-02-16T06:40:21;22.20;;;14.10;;
33347;SDS011;19707;51.158;17.124;2024-02-16T06:43:23;16.80;;;9.70;;
33347;SDS011;19707;51.158;17.124;2024-02-16T06:46:25;22.80;;;12.00;;
33347;SDS011;19707;51.158;17.124;2024-02-16T06:49:29;25.10;;;14.50;;
33347;SDS011;19707;51.158;17.124;2024-02-16T06:52:31;20.60;;;12.70;;
33347;SDS011;19707;51.158;17.124;2024-02-16T06:55:33;23.10;;;14.60;;
33347;SDS011;19707;51.158;17.124;2024-02-16T06:58:35;19.10;;;11.30;;
33347;SDS011;19707;51.158;17.124;2024-02-16T07:01:38;21.20;;;12.60;;
33347;SDS011;19707;51.158;17.124;2024-02-16T07:04:42;20.90;;;12.80;;
33347;SDS011;19707;51.158;17.124;2024-02-16T07:07:45;16.70;;;10.90;;
33347;SDS011;19707;51.158;17.124;2024-02-16T07:10:47;21.00;;;13.70;;
33347;SDS011;19707;51.158;17.124;2024-02-16T07:13:50;17.50;;;10.10;;
33347;SDS011;19707;51.158;17.124;2024-02-16T07:16:52;19.30;;;11.90;;
33347;SDS011;19707;51.158;17.124;2024-02-16T07:19:54;18.80;;;11.70;;
33347;SDS011;19707;51.158;17.124;2024-02-16T07:22:56;21.20;;;13.30;;
33347;SDS011;19707;51.158;17.124;2024-02-16T07:25:58;21.60;;;13.80;;
33347;SDS011;19707;51.158;17.124;2024-02-16T07:29:00;18.10;;;11.80;;
33347;SDS011;19707;51.158;17.124;2024-02-16T07:32:02;20.40;;;12.00;;
33347;SDS011;19707;51.158;17.124;2024-02-16T07:35:05;20.90;;;12.90;;
33347;SDS011;19707;51.158;17.124;2024-02-16T07:38:08;11.10;;;6.40;;
33347;SDS011;19707;51.158;17.124;2024-02-16T07:41:10;20.50;;;12.10;;
33347;SDS011;19707;51.158;17.124;2024-02-16T07:44:12;17.20;;;11.10;;
33347;SDS011;19707;51.158;17.124;2024-02-16T07:47:14;14.50;;;8.00;;
33347;SDS011;19707;51.158;17.124;2024-02-16T07:50:21;17.50;;;11.80;;
33347;SDS011;19707;51.158;17.124;2024-02-16T07:53:23;17.80;;;12.50;;
33347;SDS011;19707;51.158;17.124;2024-02-16T07:56:26;15.70;;;11.40;;
33347;SDS011;19707;51.158;17.124;2024-02-16T07:59:28;14.90;;;11.10;;
33347;SDS011;19707;51.158;17.124;2024-02-16T08:02:30;15.30;;;10.40;;
33347;SDS011;19707;51.158;17.124;2024-02-16T08:05:32;15.60;;;11.50;;
33347;SDS011;19707;51.158;17.124;2024-02-16T08:08:35;14.30;;;10.20;;
33347;SDS011;19707;51.158;17.124;2024-02-16T08:11:37;13.60;;;8.80;;
33347;SDS011;19707;51.158;17.124;2024-02-16T08:14:39;14.60;;;9.30;;
33347;SDS011;19707;51.158;17.124;2024-02-16T08:17:42;12.50;;;8.70;;
33347;SDS011;19707;51.158;17.124;2024-02-16T08:20:44;12.40;;;8.60;;
33347;SDS011;19707;51.158;17.124;2024-02-16T08:23:47;12.70;;;9.90;;
33347;SDS011;19707;51.158;17.124;2024-02-16T08:26:49;14.40;;;11.10;;
33347;SDS011;19707;51.158;17.124;2024-02-16T08:29:51;13.10;;;8.50;;
33347;SDS011;19707;51.158;17.124;2024-02-16T08:32:56;11.70;;;8.70;;
33347;SDS011;19707;51.158;17.124;2024-02-16T08:36:00;13.00;;;9.30;;
33347;SDS011;19707;51.158;17.124;2024-02-16T08:39:02;16.10;;;9.20;;
33347;SDS011;19707;51.158;17.124;2024-02-16T08:42:05;14.90;;;10.00;;
33347;SDS011;19707;51.158;17.124;2024-02-16T08:45:07;10.80;;;7.10;;
33347;SDS011;19707;51.158;17.124;2024-02-16T08:48:10;12.10;;;8.40;;
33347;SDS011;19707;51.158;17.124;2024-02-16T08:51:13;12.80;;;8.40;;
33347;SDS011;19707;51.158;17.124;2024-02-16T08:54:15;12.10;;;8.00;;
33347;SDS011;19707;51.158;17.124;2024-02-16T08:57:20;12.70;;;8.80;;
33347;SDS011;19707;51.158;17.124;2024-02-16T09:00:22;11.00;;;7.90;;
33347;SDS011;19707;51.158;17.124;2024-02-16T09:03:25;12.70;;;8.80;;
33347;SDS011;19707;51.158;17.124;2024-02-16T09:06:27;14.60;;;8.70;;
33347;SDS011;19707;51.158;17.124;2024-02-16T09:09:30;9.80;;;7.60;;
33347;SDS011;19707;51.158;17.124;2024-02-16T09:12:33;11.30;;;7.60;;
33347;SDS011;19707;51.158;17.124;2024-02-16T09:15:35;9.80;;;7.30;;
33347;SDS011;19707;51.158;17.124;2024-02-16T09:18:38;10.70;;;7.50;;
33347;SDS011;19707;51.158;17.124;2024-02-16T09:21:41;9.30;;;7.30;;
33347;SDS011;19707;51.158;17.124;2024-02-16T09:24:43;9.70;;;7.70;;
33347;SDS011;19707;51.158;17.124;2024-02-16T09:27:48;9.70;;;6.90;;
33347;SDS011;19707;51.158;17.124;2024-02-16T09:30:51;8.80;;;5.70;;
33347;SDS011;19707;51.158;17.124;2024-02-16T09:33:53;8.80;;;6.70;;
33347;SDS011;19707;51.158;17.124;2024-02-16T09:36:55;11.40;;;5.60;;
33347;SDS011;19707;51.158;17.124;2024-02-16T09:39:58;10.50;;;6.70;;
33347;SDS011;19707;51.158;17.124;2024-02-16T09:43:00;8.90;;;6.40;;
33347;SDS011;19707;51.158;17.124;2024-02-16T09:46:02;10.40;;;6.40;;
33347;SDS011;19707;51.158;17.124;2024-02-16T09:49:04;7.80;;;5.30;;
33347;SDS011;19707;51.158;17.124;2024-02-16T09:52:08;8.60;;;5.30;;
33347;SDS011;19707;51.158;17.124;2024-02-16T09:55:15;7.70;;;5.50;;
33347;SDS011;19707;51.158;17.124;2024-02-16T09:58:18;10.50;;;6.00;;
33347;SDS011;19707;51.158;17.124;2024-02-16T10:01:22;8.50;;;6.50;;
33347;SDS011;19707;51.158;17.124;2024-02-16T10:04:24;8.90;;;5.80;;
33347;SDS011;19707;51.158;17.124;2024-02-16T10:07:30;8.90;;;5.40;;
33347;SDS011;19707;51.158;17.124;2024-02-16T10:10:33;7.90;;;5.60;;
33347;SDS011;19707;51.158;17.124;2024-02-16T10:13:38;7.10;;;5.40;;
33347;SDS011;19707;51.158;17.124;2024-02-16T10:16:41;7.00;;;5.20;;
33347;SDS011;19707;51.158;17.124;2024-02-16T10:19:43;7.10;;;4.30;;
33347;SDS011;19707;51.158;17.124;2024-02-16T10:22:45;8.00;;;5.90;;
33347;SDS011;19707;51.158;17.124;2024-02-16T10:25:47;5.30;;;3.30;;
33347;SDS011;19707;51.158;17.124;2024-02-16T10:28:50;9.20;;;6.20;;
33347;SDS011;19707;51.158;17.124;2024-02-16T10:31:56;8.70;;;5.10;;
33347;SDS011;19707;51.158;17.124;2024-02-16T10:34:58;12.00;;;5.80;;
33347;SDS011;19707;51.158;17.124;2024-02-16T10:38:01;9.00;;;6.20;;
33347;SDS011;19707;51.158;17.124;2024-02-16T10:41:08;9.80;;;5.70;;
33347;SDS011;19707;51.158;17.124;2024-02-16T10:44:11;8.50;;;5.90;;
33347;SDS011;19707;51.158;17.124;2024-02-16T10:47:13;6.50;;;4.60;;
33347;SDS011;19707;51.158;17.124;2024-02-16T10:50:16;11.30;;;5.50;;
33347;SDS011;19707;51.158;17.124;2024-02-16T10:53:19;8.60;;;6.10;;
33347;SDS011;19707;51.158;17.124;2024-02-16T10:56:42;8.40;;;6.00;;
33347;SDS011;19707;51.158;17.124;2024-02-16T10:59:45;9.90;;;6.40;;
33347;SDS011;19707;51.158;17.124;2024-02-16T11:02:56;8.30;;;5.80;;
33347;SDS011;19707;51.158;17.124;2024-02-16T11:06:00;7.50;;;5.60;;
33347;SDS011;19707;51.158;17.124;2024-02-16T11:09:03;6.90;;;4.80;;
33347;SDS011;19707;51.158;17.124;2024-02-16T11:12:14;8.20;;;5.20;;
33347;SDS011;19707;51.158;17.124;2024-02-16T11:15:17;7.60;;;6.00;;
33347;SDS011;19707;51.158;17.124;2024-02-16T11:18:29;12.50;;;5.40;;
33347;SDS011;19707;51.158;17.124;2024-02-16T11:21:32;10.50;;;6.80;;
33347;SDS011;19707;51.158;17.124;2024-02-16T11:24:35;8.80;;;6.20;;
33347;SDS011;19707;51.158;17.124;2024-02-16T11:27:37;7.80;;;5.70;;
33347;SDS011;19707;51.158;17.124;2024-02-16T11:30:41;7.90;;;5.30;;
33347;SDS011;19707;51.158;17.124;2024-02-16T11:33:43;6.90;;;5.30;;
33347;SDS011;19707;51.158;17.124;2024-02-16T11:36:47;7.40;;;4.70;;
33347;SDS011;19707;51.158;17.124;2024-02-16T11:39:54;9.00;;;5.80;;
33347;SDS011;19707;51.158;17.124;2024-02-16T11:42:58;7.80;;;5.20;;
33347;SDS011;19707;51.158;17.124;2024-02-16T11:46:10;11.90;;;6.40;;
33347;SDS011;19707;51.158;17.124;2024-02-16T11:49:16;9.40;;;5.80;;
33347;SDS011;19707;51.158;17.124;2024-02-16T11:52:19;8.50;;;6.10;;
33347;SDS011;19707;51.158;17.124;2024-02-16T11:55:21;6.70;;;5.20;;
33347;SDS011;19707;51.158;17.124;2024-02-16T11:58:24;7.80;;;5.30;;
33347;SDS011;19707;51.158;17.124;2024-02-16T12:01:26;7.90;;;5.10;;
33347;SDS011;19707;51.158;17.124;2024-02-16T12:04:29;8.00;;;5.70;;
33347;SDS011;19707;51.158;17.124;2024-02-16T12:07:32;7.60;;;5.50;;
33347;SDS011;19707;51.158;17.124;2024-02-16T12:10:35;7.00;;;5.00;;
33347;SDS011;19707;51.158;17.124;2024-02-16T12:13:39;8.20;;;5.00;;
33347;SDS011;19707;51.158;17.124;2024-02-16T12:16:41;8.00;;;5.30;;
33347;SDS011;19707;51.158;17.124;2024-02-16T12:19:44;7.30;;;5.10;;
33347;SDS011;19707;51.158;17.124;2024-02-16T12:22:47;6.10;;;4.20;;
33347;SDS011;19707;51.158;17.124;2024-02-16T12:25:49;5.90;;;4.40;;
33347;SDS011;19707;51.158;17.124;2024-02-16T12:28:51;10.90;;;4.70;;
33347;SDS011;19707;51.158;17.124;2024-02-16T12:31:53;6.10;;;4.10;;
33347;SDS011;19707;51.158;17.124;2024-02-16T12:34:55;7.10;;;4.20;;
33347;SDS011;19707;51.158;17.124;2024-02-16T12:37:59;5.90;;;4.10;;
33347;SDS011;19707;51.158;17.124;2024-02-16T12:41:02;8.20;;;3.80;;
33347;SDS011;19707;51.158;17.124;2024-02-16T12:44:04;4.20;;;3.10;;
33347;SDS011;19707;51.158;17.124;2024-02-16T12:47:07;4.70;;;2.80;;
33347;SDS011;19707;51.158;17.124;2024-02-16T12:50:09;3.60;;;2.10;;
33347;SDS011;19707;51.158;17.124;2024-02-16T12:53:11;4.90;;;2.30;;
33347;SDS011;19707;51.158;17.124;2024-02-16T12:56:13;4.30;;;2.30;;
33347;SDS011;19707;51.158;17.124;2024-02-16T12:59:16;5.90;;;2.60;;
33347;SDS011;19707;51.158;17.124;2024-02-16T13:02:18;3.70;;;2.20;;
33347;SDS011;19707;51.158;17.124;2024-02-16T13:05:20;3.50;;;1.70;;
33347;SDS011;19707;51.158;17.124;2024-02-16T13:08:23;3.80;;;2.20;;
33347;SDS011;19707;51.158;17.124;2024-02-16T13:11:25;5.00;;;2.20;;
33347;SDS011;19707;51.158;17.124;2024-02-16T13:14:27;3.10;;;2.00;;
33347;SDS011;19707;51.158;17.124;2024-02-16T13:17:29;3.40;;;1.70;;
33347;SDS011;19707;51.158;17.124;2024-02-16T13:20:32;3.10;;;2.30;;
33347;SDS011;19707;51.158;17.124;2024-02-16T13:23:36;4.10;;;1.90;;
33347;SDS011;19707;51.158;17.124;2024-02-16T13:26:44;3.40;;;2.30;;
33347;SDS011;19707;51.158;17.124;2024-02-16T13:29:46;2.90;;;2.00;;
33347;SDS011;19707;51.158;17.124;2024-02-16T13:32:50;4.80;;;2.40;;
33347;SDS011;19707;51.158;17.124;2024-02-16T13:35:52;3.60;;;2.20;;
33347;SDS011;19707;51.158;17.124;2024-02-16T13:38:54;4.60;;;2.10;;
33347;SDS011;19707;51.158;17.124;2024-02-16T13:41:56;6.50;;;2.40;;
33347;SDS011;19707;51.158;17.124;2024-02-16T13:45:14;5.10;;;2.50;;
33347;SDS011;19707;51.158;17.124;2024-02-16T13:48:16;3.10;;;2.00;;
33347;SDS011;19707;51.158;17.124;2024-02-16T13:51:18;4.10;;;2.30;;
33347;SDS011;19707;51.158;17.124;2024-02-16T13:54:20;4.60;;;2.50;;
33347;SDS011;19707;51.158;17.124;2024-02-16T13:57:23;3.40;;;2.00;;
33347;SDS011;19707;51.158;17.124;2024-02-16T14:00:25;3.10;;;2.50;;
33347;SDS011;19707;51.158;17.124;2024-02-16T14:03:27;6.50;;;2.90;;
33347;SDS011;19707;51.158;17.124;2024-02-16T14:06:29;6.10;;;2.00;;
33347;SDS011;19707;51.158;17.124;2024-02-16T14:09:35;4.40;;;2.60;;
33347;SDS011;19707;51.158;17.124;2024-02-16T14:12:37;4.90;;;2.30;;
33347;SDS011;19707;51.158;17.124;2024-02-16T14:15:39;5.70;;;2.30;;
33347;SDS011;19707;51.158;17.124;2024-02-16T14:18:41;4.40;;;2.20;;
33347;SDS011;19707;51.158;17.124;2024-02-16T14:21:43;3.40;;;2.10;;
33347;SDS011;19707;51.158;17.124;2024-02-16T14:24:45;3.60;;;2.70;;
33347;SDS011;19707;51.158;17.124;2024-02-16T14:27:47;5.80;;;2.40;;
33347;SDS011;19707;51.158;17.124;2024-02-16T14:30:49;4.90;;;2.60;;
33347;SDS011;19707;51.158;17.124;2024-02-16T14:33:51;5.90;;;2.60;;
33347;SDS011;19707;51.158;17.124;2024-02-16T14:36:53;5.00;;;2.30;;
33347;SDS011;19707;51.158;17.124;2024-02-16T14:39:56;5.80;;;3.30;;
33347;SDS011;19707;51.158;17.124;2024-02-16T14:42:59;4.80;;;2.90;;
33347;SDS011;19707;51.158;17.124;2024-02-16T14:46:01;3.60;;;3.00;;
33347;SDS011;19707;51.158;17.124;2024-02-16T14:49:05;3.80;;;2.80;;
33347;SDS011;19707;51.158;17.124;2024-02-16T14:52:10;5.20;;;2.80;;
33347;SDS011;19707;51.158;17.124;2024-02-16T14:55:12;5.00;;;3.10;;
33347;SDS011;19707;51.158;17.124;2024-02-16T14:58:16;5.80;;;3.40;;
33347;SDS011;19707;51.158;17.124;2024-02-16T15:01:19;4.40;;;2.30;;
33347;SDS011;19707;51.158;17.124;2024-02-16T15:04:20;4.80;;;2.70;;
33347;SDS011;19707;51.158;17.124;2024-02-16T15:07:23;4.70;;;2.40;;
33347;SDS011;19707;51.158;17.124;2024-02-16T15:10:24;5.60;;;2.80;;
33347;SDS011;19707;51.158;17.124;2024-02-16T15:13:26;4.10;;;2.70;;
33347;SDS011;19707;51.158;17.124;2024-02-16T15:16:29;5.50;;;3.20;;
33347;SDS011;19707;51.158;17.124;2024-02-16T15:19:32;4.30;;;2.70;;
33347;SDS011;19707;51.158;17.124;2024-02-16T15:22:34;7.40;;;4.50;;
33347;SDS011;19707;51.158;17.124;2024-02-16T15:25:36;6.50;;;3.00;;
33347;SDS011;19707;51.158;17.124;2024-02-16T15:28:38;5.40;;;2.70;;
33347;SDS011;19707;51.158;17.124;2024-02-16T15:31:41;8.20;;;3.20;;
33347;SDS011;19707;51.158;17.124;2024-02-16T15:34:43;5.90;;;2.90;;
33347;SDS011;19707;51.158;17.124;2024-02-16T15:37:48;5.80;;;3.20;;
33347;SDS011;19707;51.158;17.124;2024-02-16T15:40:50;4.70;;;3.00;;
33347;SDS011;19707;51.158;17.124;2024-02-16T15:43:52;6.30;;;3.10;;
33347;SDS011;19707;51.158;17.124;2024-02-16T15:46:54;5.20;;;3.60;;
33347;SDS011;19707;51.158;17.124;2024-02-16T15:49:59;7.30;;;3.20;;
33347;SDS011;19707;51.158;17.124;2024-02-16T15:53:02;5.40;;;3.70;;
33347;SDS011;19707;51.158;17.124;2024-02-16T15:56:06;5.70;;;2.90;;
33347;SDS011;19707;51.158;17.124;2024-02-16T15:59:29;5.30;;;3.80;;
33347;SDS011;19707;51.158;17.124;2024-02-16T16:02:31;9.70;;;7.00;;
33347;SDS011;19707;51.158;17.124;2024-02-16T16:05:33;21.60;;;16.60;;
33347;SDS011;19707;51.158;17.124;2024-02-16T16:08:36;9.60;;;7.90;;
33347;SDS011;19707;51.158;17.124;2024-02-16T16:11:38;10.60;;;8.00;;
33347;SDS011;19707;51.158;17.124;2024-02-16T16:14:44;14.10;;;11.80;;
33347;SDS011;19707;51.158;17.124;2024-02-16T16:17:46;10.10;;;7.80;;
33347;SDS011;19707;51.158;17.124;2024-02-16T16:20:48;8.10;;;5.50;;
33347;SDS011;19707;51.158;17.124;2024-02-16T16:23:51;5.70;;;3.80;;
33347;SDS011;19707;51.158;17.124;2024-02-16T16:26:54;7.20;;;4.40;;
33347;SDS011;19707;51.158;17.124;2024-02-16T16:30:08;7.30;;;5.80;;
33347;SDS011;19707;51.158;17.124;2024-02-16T16:33:10;8.30;;;5.00;;
33347;SDS011;19707;51.158;17.124;2024-02-16T16:36:12;8.30;;;5.20;;
33347;SDS011;19707;51.158;17.124;2024-02-16T16:39:17;14.90;;;7.90;;
33347;SDS011;19707;51.158;17.124;2024-02-16T16:42:18;11.20;;;8.50;;
33347;SDS011;19707;51.158;17.124;2024-02-16T16:45:20;8.80;;;5.70;;
33347;SDS011;19707;51.158;17.124;2024-02-16T16:48:24;9.40;;;5.80;;
33347;SDS011;19707;51.158;17.124;2024-02-16T16:51:44;15.40;;;11.50;;
33347;SDS011;19707;51.158;17.124;2024-02-16T16:54:46;16.00;;;12.70;;
33347;SDS011;19707;51.158;17.124;2024-02-16T16:57:48;19.50;;;12.90;;
33347;SDS011;19707;51.158;17.124;2024-02-16T17:00:50;9.90;;;6.10;;
33347;SDS011;19707;51.158;17.124;2024-02-16T17:03:54;12.40;;;10.00;;
33347;SDS011;19707;51.158;17.124;2024-02-16T17:06:57;9.00;;;5.90;;
33347;SDS011;19707;51.158;17.124;2024-02-16T17:09:59;10.00;;;5.40;;
33347;SDS011;19707;51.158;17.124;2024-02-16T17:13:01;9.40;;;5.80;;
33347;SDS011;19707;51.158;17.124;2024-02-16T17:16:03;11.60;;;6.40;;
33347;SDS011;19707;51.158;17.124;2024-02-16T17:19:06;11.90;;;7.10;;
33347;SDS011;19707;51.158;17.124;2024-02-16T17:22:08;9.90;;;6.00;;
33347;SDS011;19707;51.158;17.124;2024-02-16T17:25:10;13.20;;;8.40;;
33347;SDS011;19707;51.158;17.124;2024-02-16T17:28:12;54.90;;;29.80;;
33347;SDS011;19707;51.158;17.124;2024-02-16T17:31:14;40.80;;;25.70;;
33347;SDS011;19707;51.158;17.124;2024-02-16T17:34:16;37.30;;;25.90;;
33347;SDS011;19707;51.158;17.124;2024-02-16T17:37:18;29.40;;;18.90;;
33347;SDS011;19707;51.158;17.124;2024-02-16T17:40:20;16.20;;;8.30;;
33347;SDS011;19707;51.158;17.124;2024-02-16T17:43:22;15.30;;;8.60;;
33347;SDS011;19707;51.158;17.124;2024-02-16T17:46:24;15.30;;;9.90;;
33347;SDS011;19707;51.158;17.124;2024-02-16T17:49:26;17.00;;;11.20;;